Latest Weather Observations for Centre Island

IDD60801

Issued at 9:05 pm CST Thursday 21 August 2014 (issued every 30 minutes, with the page automatically refreshed every 10 minutes)

About weather observations | Map of weather stations | Latest weather observations for NT | Other Formats
Station Details ID: 014703 Name: CENTRE ISLAND Lat: -15.74 Lon: 136.82 Height: 12.2 m
Data from the previous 72 hours. | See also: Recent months at Centre Island
Date/Time
CST
Temp
°C
App
Temp
°C
Dew
Point
Rel
Hum
%
Delta-T
°C
Wind Press
QNH
hPa
Press
MSL
hPa
Rain
since 9 am
mm
Dir
 
Spd
km/h
Gust
km/h
Spd
kts
Gust
kts
21/09:00pm 19.7 19.4 14.3 71 3.1 NE 9 11 5 6 1016.0 1016.0 0.0
21/08:30pm 20.1 19.2 13.8 67 3.6 NE 11 15 6 8 1015.9 1015.9 0.0
21/08:00pm 20.6 19.3 13.8 65 3.9 NE 13 19 7 10 1015.8 - 0.0
21/07:30pm 20.8 18.4 12.5 59 4.7 NE 17 22 9 12 1015.5 1015.5 0.0
21/07:00pm 21.0 18.3 12.9 60 4.6 NE 19 22 10 12 1015.2 - 0.0
21/06:30pm 21.2 18.8 13.9 63 4.2 NNE 19 24 10 13 1014.8 1014.8 0.0
21/06:00pm 21.8 19.3 13.4 59 4.8 NNE 19 24 10 13 1014.4 1014.4 0.0
21/05:30pm 23.1 20.8 13.0 53 5.8 NNE 17 22 9 12 1014.1 1014.1 0.0
21/05:00pm 23.9 21.7 13.2 51 6.2 NE 17 20 9 11 1013.9 - 0.0
21/04:30pm 24.9 22.3 10.7 40 7.9 NE 15 19 8 10 1013.9 1013.9 0.0
21/04:00pm 25.3 21.7 10.0 38 8.5 ENE 19 22 10 12 1013.7 - 0.0
21/03:30pm 25.4 22.0 9.3 36 8.8 ENE 17 22 9 12 1013.8 1013.8 0.0
21/03:00pm 25.6 22.8 8.6 34 9.2 ENE 13 15 7 8 1013.9 1013.9 0.0
21/02:30pm 25.3 22.7 7.9 33 9.3 E 11 15 6 8 1014.3 1014.3 0.0
21/02:00pm 25.0 22.4 6.2 30 9.7 E 9 13 5 7 1014.7 - 0.0
21/01:30pm 25.1 22.4 5.8 29 9.9 ESE 9 11 5 6 1015.2 1015.2 0.0
21/01:00pm 25.4 21.9 1.5 21 11.3 E 9 11 5 6 1015.6 - 0.0
21/12:30pm 24.2 21.9 5.5 30 9.5 E 7 11 4 6 1016.1 1016.1 0.0
21/12:00pm 24.0 21.5 6.7 33 8.9 W 9 13 5 7 1016.3 1016.3 0.0
21/11:30am 24.0 21.8 6.3 32 9.1 SSE 7 9 4 5 1017.0 1017.0 0.0
21/11:00am 23.4 20.4 5.8 32 8.9 S 11 15 6 8 1017.5 - 0.0
21/10:30am 22.7 18.2 4.2 30 9.0 S 17 20 9 11 1018.0 1018.0 0.0
21/10:00am 21.3 17.3 4.8 34 8.1 S 15 19 8 10 1018.4 - 0.0
21/09:30am 20.0 15.5 4.1 35 7.6 S 17 20 9 11 1018.6 1018.6 0.0
21/09:00am 20.3 14.6 4.8 36 7.5 SSE 24 30 13 16 1018.4 1018.4 0.0
21/08:30am 20.0 13.2 4.9 37 7.3 SSE 30 35 16 19 1018.2 1018.2 0.0
21/08:00am 19.6 12.0 5.6 40 6.9 SSE 35 41 19 22 1017.9 - 0.0
21/07:30am 19.4 11.9 6.2 42 6.6 SSE 35 41 19 22 1017.6 1017.6 0.0
21/07:00am 19.0 11.1 6.1 43 6.4 SSE 37 43 20 23 1017.2 - 0.0
21/06:30am 19.0 11.7 7.4 47 5.9 SSE 35 43 19 23 1016.8 1016.8 0.0
21/06:00am 19.1 11.9 5.9 42 6.5 SSE 33 41 18 22 1016.4 1016.4 0.0
21/05:30am 18.8 14.4 9.0 53 5.1 SSE 22 26 12 14 1016.3 1016.3 0.0
21/05:00am 18.8 15.1 10.1 57 4.6 SSE 20 24 11 13 1016.1 - 0.0
21/04:30am 19.0 15.6 11.3 61 4.2 S 20 26 11 14 1015.8 1015.8 0.0
21/04:00am 18.6 16.5 13.7 73 2.8 S 17 19 9 10 1015.6 - 0.0
21/03:30am 18.6 16.5 13.7 73 2.8 S 17 20 9 11 1015.6 1015.6 0.0
21/03:00am 18.8 16.8 13.9 73 2.8 SSW 17 20 9 11 1015.7 1015.7 0.0
21/02:30am 18.7 16.7 14.0 74 2.7 SSW 17 19 9 10 1015.8 1015.8 0.0
21/02:00am 18.7 17.0 14.6 77 2.4 SSW 17 20 9 11 1016.0 - 0.0
21/01:30am 18.8 17.3 15.3 80 2.1 S 17 20 9 11 1016.2 1016.2 0.0
21/01:00am 18.7 18.2 15.8 83 1.7 SSW 13 17 7 9 1016.1 - 0.0
21/12:30am 18.7 18.5 15.6 82 1.8 SW 11 17 6 9 1016.3 1016.3 0.0
21/12:00am 19.0 19.1 16.4 85 1.6 SW 11 13 6 7 1016.4 1016.4 0.0
 
Date/Time
CST
Temp
°C
App
Temp
°C
Dew
Point
Rel
Hum
%
Delta-T
°C
Wind Press
QNH
hPa
Press
MSL
hPa
Rain
since 9 am
mm
Dir
 
Spd
km/h
Gust
km/h
Spd
kts
Gust
kts
20/11:30pm 18.6 19.0 16.2 86 1.4 NW 9 11 5 6 1016.5 1016.5 0.0
20/11:00pm 17.7 18.0 15.0 84 1.6 NW 7 9 4 5 1016.6 - 0.0
20/10:30pm 17.8 18.4 15.2 85 1.5 NNW 6 11 3 6 1016.5 1016.5 0.0
20/10:00pm 18.0 19.6 14.9 82 1.8 CALM 0 0 0 0 1016.3 - 0.0
20/09:30pm 19.1 19.7 15.4 79 2.2 NE 6 7 3 4 1016.2 1016.2 0.0
20/09:00pm 20.1 20.1 15.3 74 2.8 NE 9 11 5 6 1016.1 1016.1 0.0
20/08:30pm 19.9 19.6 14.3 70 3.2 NNE 9 11 5 6 1015.8 1015.8 0.0
20/08:00pm 20.3 19.4 13.7 66 3.8 NE 11 13 6 7 1015.5 - 0.0
20/07:30pm 20.6 19.7 13.6 64 4.0 NE 11 13 6 7 1015.3 1015.3 0.0
20/07:00pm 20.8 19.7 14.2 66 3.8 NE 13 15 7 8 1014.9 - 0.0
20/06:30pm 21.2 19.6 13.9 63 4.2 NNE 15 20 8 11 1014.6 1014.6 0.0
20/06:00pm 21.8 19.3 13.4 59 4.8 NNE 19 26 10 14 1014.2 1014.2 0.0
20/05:30pm 22.6 19.9 12.8 54 5.6 NNE 19 26 10 14 1013.9 1013.9 0.0
20/05:00pm 23.0 20.3 13.5 55 5.5 NNE 20 26 11 14 1013.8 - 0.0
20/04:30pm 23.6 20.1 12.3 49 6.4 NNE 22 28 12 15 1013.7 1013.7 0.0
20/04:00pm 23.9 20.7 11.9 47 6.8 NNE 20 28 11 15 1013.8 - 0.0
20/03:30pm 24.8 21.9 12.4 46 7.1 NNE 19 24 10 13 1013.9 1013.9 0.0
20/03:00pm 25.5 23.5 10.1 38 8.5 ENE 11 13 6 7 1014.2 1014.2 0.0
20/02:30pm 25.5 23.8 9.7 37 8.7 E 9 13 5 7 1014.4 1014.4 0.0
20/02:00pm 25.2 22.8 11.4 42 7.8 E 15 19 8 10 1015.0 - 0.0
20/01:30pm 25.1 21.8 10.9 41 8.0 ESE 19 22 10 12 1015.5 1015.5 0.0
20/01:00pm 25.1 21.3 9.8 38 8.4 E 20 26 11 14 1015.9 - 0.0
20/12:30pm 24.8 19.6 8.7 36 8.7 E 26 32 14 17 1016.5 1016.5 0.0
20/12:00pm 24.2 19.2 9.4 39 8.0 ESE 26 32 14 17 1017.0 1017.0 0.0
20/11:30am 24.0 18.0 8.8 38 8.1 ESE 30 35 16 19 1017.5 1017.5 0.0
20/11:00am 23.4 17.4 7.1 35 8.5 ESE 28 33 15 18 1017.8 - 0.0
20/10:30am 22.6 19.3 9.7 44 7.0 ESE 17 19 9 10 1018.2 1018.2 0.0
20/10:00am 22.2 19.3 9.7 45 6.8 SE 15 19 8 10 1018.2 - 0.0
20/09:30am 21.4 17.8 9.9 48 6.2 SE 19 22 10 12 1018.1 1018.1 0.0
20/09:00am 20.3 16.0 9.2 49 5.9 SSE 22 30 12 16 1017.8 1017.8 0.0
20/08:30am 19.4 14.2 9.0 51 5.4 SSE 26 30 14 16 1017.5 1017.5 0.0
20/08:00am 19.2 15.8 11.3 60 4.3 S 20 26 11 14 1017.4 - 0.0
20/07:30am 18.9 15.7 11.9 64 3.9 S 20 26 11 14 1017.3 1017.3 0.0
20/07:00am 18.4 14.8 11.9 66 3.6 SSW 22 28 12 15 1017.0 - 0.0
20/06:30am 18.0 14.6 12.5 70 3.1 S 22 26 12 14 1016.7 1016.7 0.0
20/06:00am 18.1 14.9 11.9 67 3.4 SSW 20 24 11 13 1016.6 1016.6 0.0
20/05:30am 18.2 14.7 12.2 68 3.3 SSW 22 26 12 14 1016.3 1016.3 0.0
20/05:00am 18.1 14.7 12.5 70 3.1 SSW 22 28 12 15 1016.2 - 0.0
20/04:30am 18.1 14.8 12.8 71 3.0 SSW 22 28 12 15 1015.9 1015.9 0.0
20/04:00am 17.8 15.0 13.3 75 2.5 SSW 20 24 11 13 1015.9 - 0.0
20/03:30am 17.6 14.8 13.1 75 2.5 SSW 20 26 11 14 1015.9 1015.9 0.0
20/03:00am 17.8 16.4 13.5 76 2.4 SW 13 17 7 9 1015.6 1015.6 0.0
20/02:30am 17.8 17.0 14.1 79 2.1 WSW 11 15 6 8 1015.8 1015.8 0.0
20/02:00am 18.1 17.3 15.0 82 1.8 WSW 13 15 7 8 1015.9 - 0.0
20/01:30am 17.8 18.0 15.8 88 1.2 W 9 11 5 6 1015.9 1015.9 0.0
20/01:00am 17.4 17.6 14.7 84 1.6 W 7 7 4 4 1016.1 - 0.0
20/12:30am 17.1 17.0 14.0 82 1.8 W 7 9 4 5 1016.3 1016.3 0.0
20/12:00am 17.1 17.9 13.8 81 1.9 NW 2 7 1 4 1016.4 1016.4 0.0
 
Date/Time
CST
Temp
°C
App
Temp
°C
Dew
Point
Rel
Hum
%
Delta-T
°C
Wind Press
QNH
hPa
Press
MSL
hPa
Rain
since 9 am
mm
Dir
 
Spd
km/h
Gust
km/h
Spd
kts
Gust
kts
19/11:30pm 17.5 18.5 13.2 76 2.4 CALM 0 0 0 0 1016.4 1016.4 0.0
19/11:00pm 18.8 19.0 14.3 75 2.6 N 6 9 3 5 1016.4 - 0.0
19/10:30pm 19.6 19.2 14.0 70 3.2 NE 9 13 5 7 1016.3 1016.3 0.0
19/10:00pm 19.9 18.5 13.4 66 3.7 NE 13 15 7 8 1016.2 - 0.0
19/09:30pm 20.2 18.7 13.2 64 4.0 NE 13 17 7 9 1016.1 1016.1 0.0
19/09:00pm 20.4 18.9 13.1 63 4.1 NE 13 17 7 9 1016.1 1016.1 0.0
19/08:30pm 20.3 18.7 12.8 62 4.2 NNE 13 17 7 9 1016.1 1016.1 0.0
19/08:00pm 20.4 18.3 12.4 60 4.5 NE 15 19 8 10 1015.6 - 0.0
19/07:30pm 20.6 18.4 12.1 58 4.8 NE 15 20 8 11 1015.3 1015.3 0.0
19/07:00pm 20.9 17.7 11.3 54 5.3 ENE 19 24 10 13 1014.9 - 0.0
19/06:30pm 21.2 17.4 11.2 53 5.5 ENE 22 26 12 14 1014.8 1014.8 0.0
19/06:00pm 21.5 18.4 12.1 55 5.3 NE 20 28 11 15 1014.5 1014.5 0.0
19/05:30pm 22.0 18.0 11.7 52 5.8 NE 24 30 13 16 1014.4 1014.4 0.0
19/05:00pm 22.6 18.5 11.4 49 6.3 NE 24 30 13 16 1014.3 - 0.0
19/04:30pm 23.2 19.4 11.3 47 6.6 NE 22 28 12 15 1014.5 1014.5 0.0
19/04:00pm 24.0 20.5 12.3 48 6.7 NE 22 28 12 15 1014.5 - 0.0
19/03:30pm 24.8 21.5 9.5 38 8.4 ENE 17 20 9 11 1014.7 1014.7 0.0
19/03:00pm 25.1 21.9 9.8 38 8.4 E 17 20 9 11 1015.0 1015.0 0.0
19/02:30pm 24.7 22.1 9.4 38 8.3 E 13 19 7 10 1015.3 1015.3 0.0
19/02:00pm 25.1 23.1 10.2 39 8.2 ENE 11 17 6 9 1015.6 - 0.0
19/01:30pm 24.6 22.1 9.7 39 8.1 E 13 17 7 9 1016.0 1016.0 0.0
19/01:00pm 24.9 21.7 10.0 39 8.2 E 17 20 9 11 1016.6 - 0.0
19/12:30pm 24.8 20.9 8.7 36 8.7 E 19 24 10 13 1017.0 1017.0 0.0
19/12:00pm 24.5 19.2 8.5 36 8.6 ESE 26 30 14 16 1017.6 1017.6 0.0
19/11:30am 23.8 19.7 10.1 42 7.5 E 22 28 12 15 1018.2 1018.2 0.0
19/11:00am 23.6 19.7 9.6 41 7.6 ESE 20 26 11 14 1018.7 - 0.0
19/10:30am 22.4 19.4 7.8 39 7.6 ESE 13 22 7 12 1019.3 1019.3 0.0
19/10:00am 20.7 18.2 9.6 49 5.9 SE 13 15 7 8 1019.5 - 0.0
19/09:30am 19.5 16.8 8.8 50 5.6 S 13 17 7 9 1019.5 1019.5 0.0
19/09:00am 18.7 15.3 9.2 54 5.0 S 17 20 9 11 1019.6 1019.6 0.0
19/08:30am 18.6 15.3 9.4 55 4.8 S 17 20 9 11 1019.6 1019.6 0.0
19/08:00am 18.2 15.3 11.0 63 3.9 SSW 17 22 9 12 1019.2 - 0.0
19/07:30am 17.8 16.6 12.9 73 2.7 SW 11 15 6 8 1018.9 1018.9 0.0
19/07:00am 16.6 15.8 12.8 78 2.1 SW 9 11 5 6 1018.5 - 0.0
19/06:30am 16.7 15.0 12.3 75 2.4 SW 13 15 7 8 1018.2 1018.2 0.0
19/06:00am 16.8 14.9 11.9 73 2.7 SSW 13 17 7 9 1018.0 1018.0 0.0
19/05:30am 17.2 14.7 12.3 73 2.7 SSW 17 22 9 12 1017.8 1017.8 0.0
19/05:00am 17.3 14.8 12.2 72 2.8 SSW 17 19 9 10 1017.5 - 0.0
19/04:30am 17.3 15.3 12.6 74 2.6 SSW 15 20 8 11 1017.4 1017.4 0.0
19/04:00am 17.5 14.6 12.4 72 2.8 SSW 19 24 10 13 1017.4 - 0.0
19/03:30am 17.4 15.3 12.5 73 2.7 SSW 15 20 8 11 1017.3 1017.3 0.0
19/03:00am 17.5 15.1 12.6 73 2.7 SSW 17 20 9 11 1017.3 1017.3 0.0
19/02:30am 17.5 15.1 12.6 73 2.7 SSW 17 20 9 11 1017.4 1017.4 0.0
19/02:00am 17.8 15.4 12.7 72 2.8 S 17 19 9 10 1017.4 - 0.0
19/01:30am 17.9 16.6 13.6 76 2.4 S 13 15 7 8 1017.5 1017.5 0.0
19/01:00am 18.1 16.6 13.2 73 2.8 S 13 15 7 8 1017.5 - 0.0
19/12:30am 18.3 17.6 14.2 77 2.4 SSW 11 15 6 8 1017.6 1017.6 0.0
19/12:00am 18.4 17.4 13.5 73 2.8 SSW 11 15 6 8 1017.8 1017.8 0.0
 
Date/Time
CST
Temp
°C
App
Temp
°C
Dew
Point
Rel
Hum
%
Delta-T
°C
Wind Press
QNH
hPa
Press
MSL
hPa
Rain
since 9 am
mm
Dir
 
Spd
km/h
Gust
km/h
Spd
kts
Gust
kts
18/11:30pm 18.2 17.6 14.5 79 2.1 SW 11 13 6 7 1017.9 1017.9 0.0
18/11:00pm 17.1 16.8 13.2 78 2.2 W 7 9 4 5 1017.9 - 0.0
18/10:30pm 17.3 16.8 12.8 75 2.5 W 7 9 4 5 1018.0 1018.0 0.0
18/10:00pm 17.4 17.0 12.3 72 2.8 NE 6 7 3 4 1018.1 - 0.0
18/09:30pm 18.1 17.5 11.7 66 3.5 NE 6 9 3 5 1017.8 1017.8 0.0

Other Formats:

Comma delimited format used in spreadsheet applications
http://www.bom.gov.au/fwo/IDD60801/IDD60801.94248.axf

JavaScript Object Notation format (JSON) in row-major order
http://www.bom.gov.au/fwo/IDD60801/IDD60801.94248.json